Delsbo, Sweden

10:53 AM CEST on August 23, 2014 (GMT +0200)
Kilbo | Change Station
CLOSE
Current Station
Personal Weather Station
Location: Färila, GäVLEBORGS LäN
Elevation: -10000 ft
Nearby Weather Stations

Elev -10000 ft 61.79 °N, 15.86 °E | Updated 8 minutes ago

Mostly Cloudy
Mostly Cloudy
57.4 °F
Feels Like 57.4 °F
N
2.0
Wind Variable Wind from East
Gusts 5.0 mph

Today
High -- | Low -- °F
--% Chance of Precip.
Yesterday
High -- | Low -- °F
Precip. -- in
5:19 AM 8:31 PM
Waning Crescent, 4% visible
Pressure 29.68 in
Visibility 6.2 miles
Clouds Few 1000 ft
Mostly Cloudy 2500 ft
Dew Point 51 °F
Humidity 79%
Rainfall 0.00 in
Snow Depth Not available.
UV 2 out of 12
Pollen Not available.
Air Quality Not available.
Flu Activity Not available.
METAR ESNN 230820Z 07009KT 9999 FEW010 BKN025 15/12 Q1005

More Conditions Fewer Conditions

Pressure 29.68 in
Visibility 6.2 miles
Clouds Few 1000 ft
Mostly Cloudy 2500 ft
Dew Point 51 °F
Humidity 79%
Rainfall 0.00 in
Snow Depth Not available.
UV 2 out of 12
Pollen Not available.
Air Quality Not available.
Flu Activity Not available.
METAR ESNN 230820Z 07009KT 9999 FEW010 BKN025 15/12 Q1005

More Conditions Fewer Conditions

10-Day Weather Forecast

Almanac

Astronomy

Aug. 23, 2014 Rise Set
Actual Time 5:19 AM CEST 8:31 PM CEST
Civil Twilight 4:27 AM CEST 9:23 PM CEST
Nautical Twilight 3:12 AM CEST 10:36 PM CEST
Astronomical Twilight 1:29 AM CEST 12:23 AM CEST
Moon 3:03 AM CEST 7:12 PM CEST
Length of Visible Light 16h 55m
Length of Day
15h 12m
Tomorrow will be 5m 48s shorter.
Waning Crescent, 4% of the Moon is Illuminated
Today
Waning Crescent
Aug 25
New
Sep 2
First Quarter
Sep 8
Full
Sep 15
Last Quarter

Yesterday's Extremes

Country Highs Country Lows

Community

WunderPhotos

Upload Photos

1,746,396 photos uploaded!

WunderBlogs® & News

By Dr. Jeff Masters
Director of Meteorology, Weather Underground
By Kari Strenfel
Meteorologist, Weather Underground
By Christopher C. Burt
Weather Historian, Weather Underground
August 23, 2014
August 23, 2014
August 22, 2014

Nearby

Snow Depth

Not available.

Earthquake Activity

City Distance Mag. Time & Date
No recent earthquake activity has been reported nearby.
Minimum magnitude displayed is 2.5.

Coastal Water Temperatures

Place Temperature
No Stations Reporting

Nearby Weather Stations